Peterson AFB, Colorado
Current Conditions -  °F | °C
As of 5:54 PM on Thursday 27 Nov 2014 (Local Time) from KCOS Reporting Station
Broken Clouds Broken Clouds  
Wind Chill: 60°   Ceiling: 25000
Heat Index: 60°   Visibility: 10mi
Dew Point: 15°   Wind: 25mph
Humidity: 17%   Direction: 290°WNW
Pressure: 30.18"   Gusts: 36mph
Location:  38.8076°N, 104.704°W
Report Text: KCOS 280054Z 29022G31KT 10SM SCT170 BKN250 16/M09 A3018 RMK AO2 PK WND 29038/0005 SLP197 T01561094
Loading
Personal Weather Stations






























Interactive Weather Map New forecast layout! Learn more

10-Day Weather Forecast

Advertisements
Track Severe Weather on mobile